| time (UTC) | temp C | wind direction | speed KPH | gust KPH | rain 1hr cm | rain 24hr cm | rain mn cm | humidity % | barometer mb |
| 20260508014535 | 16 | 313 | 8.0 | 9.7 | 0.00 | 0.00 | 0.00 | 41 | 1008.9 |
| 20260508013018 | 17 | 315 | 9.7 | 14.5 | 0.00 | 0.00 | 0.00 | 39 | 1008.8 |
| 20260508011520 | 18 | 302 | 8.0 | 14.5 | 0.00 | 0.00 | 0.00 | 36 | 1008.6 |
| 20260508010025 | 19 | 329 | 9.7 | 17.7 | 0.00 | 0.00 | 0.00 | 35 | 1008.3 |
| 20260508004522 | 20 | 302 | 11.3 | 20.9 | 0.00 | 0.00 | 0.00 | 33 | 1008.4 |
| 20260508003036 | 21 | 319 | 12.9 | 20.9 | 0.00 | 0.00 | 0.00 | 33 | 1008.2 |
| 20260508001512 | 21 | 294 | 11.3 | 20.9 | 0.00 | 0.00 | 0.00 | 39 | 1007.9 |
| 20260508000012 | 21 | 236 | 4.8 | 11.3 | 0.00 | 0.00 | 0.00 | 42 | 1007.9 |
| 20260507234510 | 20 | 206 | 6.4 | 12.9 | 0.00 | 0.00 | 0.00 | 41 | 1008.1 |
| 20260507233009 | 20 | 249 | 8.0 | 19.3 | 0.00 | 0.00 | 0.00 | 42 | 1008.1 |
| 20260507231509 | 20 | 267 | 8.0 | 30.6 | 0.00 | 0.00 | 0.00 | 41 | 1008.3 |
| 20260507230013 | 21 | 221 | 6.4 | 22.5 | 0.00 | 0.00 | 0.00 | 38 | 1008.1 |
| 20260507224509 | 21 | 259 | 14.5 | 25.7 | 0.00 | 0.00 | 0.00 | 38 | 1008.4 |
| 20260507223005 | 21 | 223 | 6.4 | 22.5 | 0.00 | 0.00 | 0.00 | 39 | 1008.4 |
| 20260507221502 | 21 | 236 | 9.7 | 27.4 | 0.00 | 0.00 | 0.00 | 41 | 1008.8 |
| 20260507214604 | 20 | 235 | 19.3 | 35.4 | 0.00 | 0.00 | 0.00 | 38 | 1009.3 |
| 20260507213056 | 20 | 275 | 16.1 | 32.2 | 0.00 | 0.00 | 0.00 | 39 | 1009.5 |
| 20260507211620 | 20 | 242 | 12.9 | 22.5 | 0.00 | 0.00 | 0.00 | 43 | 1009.6 |
| 20260507210054 | 19 | 203 | 12.9 | 30.6 | 0.00 | 0.00 | 0.00 | 41 | 1009.9 |
| 20260507204559 | 19 | 182 | 11.3 | 24.1 | 0.00 | 0.00 | 0.00 | 42 | 1010.4 |
| 20260507203049 | 20 | 277 | 19.3 | 37.0 | 0.00 | 0.00 | 0.00 | 40 | 1010.4 |
| 20260507201559 | 20 | 196 | 16.1 | 25.7 | 0.00 | 0.00 | 0.00 | 42 | 1010.6 |
| 20260507200058 | 20 | 252 | 22.5 | 37.0 | 0.00 | 0.00 | 0.00 | 40 | 1010.8 |
| 20260507194542 | 20 | 231 | 12.9 | 30.6 | 0.00 | 0.00 | 0.00 | 42 | 1011.0 |
| 20260507193041 | 20 | 244 | 17.7 | 30.6 | 0.00 | 0.00 | 0.00 | 41 | 1010.9 |
| 20260507191546 | 19 | 225 | 16.1 | 30.6 | 0.00 | 0.00 | 0.00 | 41 | 1011.2 |
| 20260507190037 | 19 | 244 | 12.9 | 32.2 | 0.00 | 0.00 | 0.00 | 46 | 1011.4 |
| 20260507184533 | 18 | 245 | 12.9 | 30.6 | 0.00 | 0.00 | 0.00 | 46 | 1011.5 |
| 20260507183031 | 18 | 263 | 8.0 | 32.2 | 0.00 | 0.00 | 0.00 | 44 | 1011.5 |
| 20260507181528 | 18 | 238 | 17.7 | 27.4 | 0.00 | 0.00 | 0.00 | 46 | 1011.8 |
| 20260507180025 | 17 | 252 | 16.1 | 29.0 | 0.00 | 0.00 | 0.00 | 49 | 1012.0 |
| 20260507174523 | 18 | 245 | 20.9 | 32.2 | 0.00 | 0.00 | 0.00 | 47 | 1012.3 |
| 20260507173019 | 17 | 223 | 12.9 | 24.1 | 0.00 | 0.00 | 0.00 | 49 | 1012.4 |
| 20260507171516 | 17 | 236 | 17.7 | 32.2 | 0.00 | 0.00 | 0.00 | 51 | 1012.7 |
| 20260507170013 | 16 | 242 | 16.1 | 30.6 | 0.00 | 0.00 | 0.00 | 54 | 1013.1 |
| 20260507164510 | 16 | 254 | 9.7 | 27.4 | 0.00 | 0.00 | 0.00 | 55 | 1013.3 |
| 20260507163007 | 16 | 269 | 14.5 | 29.0 | 0.00 | 0.00 | 0.00 | 56 | 1013.6 |
| 20260507161504 | 15 | 217 | 14.5 | 25.7 | 0.00 | 0.00 | 0.00 | 57 | 1013.5 |
| 20260507160109 | 15 | 296 | 11.3 | 25.7 | 0.00 | 0.00 | 0.00 | 61 | 1013.7 |
| 20260507154556 | 15 | 216 | 11.3 | 24.1 | 0.00 | 0.00 | 0.00 | 59 | 1014.0 |
| 20260507153058 | 14 | 267 | 14.5 | 27.4 | 0.00 | 0.00 | 0.00 | 61 | 1014.3 |
| 20260507151547 | 14 | 244 | 12.9 | 24.1 | 0.00 | 0.00 | 0.00 | 63 | 1014.3 |
| 20260507150044 | 13 | 276 | 14.5 | 25.7 | 0.00 | 0.00 | 0.00 | 64 | 1014.3 |
| 20260507144539 | 13 | 293 | 16.1 | 27.4 | 0.00 | 0.00 | 0.00 | 65 | 1014.4 |
| 20260507143036 | 12 | 240 | 17.7 | 25.7 | 0.00 | 0.00 | 0.00 | 66 | 1014.5 |
| 20260507141536 | 12 | 244 | 14.5 | 25.7 | 0.00 | 0.00 | 0.00 | 69 | 1014.4 |
| 20260507140030 | 11 | 228 | 9.7 | 29.0 | 0.00 | 0.00 | 0.00 | 72 | 1014.5 |
| 20260507134527 | 10 | 238 | 14.5 | 25.7 | 0.00 | 0.00 | 0.00 | 75 | 1014.6 |
| 20260507133022 | 9 | 250 | 8.0 | 19.3 | 0.00 | 0.00 | 0.00 | 77 | 1014.7 |
| 20260507131516 | 8 | 227 | 8.0 | 16.1 | 0.00 | 0.00 | 0.00 | 79 | 1014.7 |
| 20260507130011 | 7 | 232 | 4.8 | 12.9 | 0.00 | 0.00 | 0.00 | 80 | 1015.0 |
| 20260507124513 | 6 | 196 | 6.4 | 11.3 | 0.00 | 0.00 | 0.00 | 80 | 1015.0 |
| 20260507123003 | 5 | 225 | 6.4 | 12.9 | 0.00 | 0.00 | 0.00 | 80 | 1015.0 |
| 20260507121559 | 5 | 208 | 3.2 | 9.7 | 0.00 | 0.00 | 0.00 | 82 | 1014.8 |
| 20260507120056 | 3 | 194 | 4.8 | 9.7 | 0.00 | 0.00 | 0.00 | 84 | 1014.7 |
| 20260507114553 | 2 | 175 | 4.8 | 9.7 | 0.00 | 0.00 | 0.00 | 83 | 1014.6 |
| 20260507113051 | 2 | 182 | 6.4 | 11.3 | 0.00 | 0.00 | 0.00 | 83 | 1014.7 |
| 20260507111549 | 2 | 192 | 6.4 | 11.3 | 0.00 | 0.00 | 0.00 | 81 | 1014.7 |
| 20260507110051 | 2 | 180 | 4.8 | 9.7 | 0.00 | 0.00 | 0.00 | 81 | 1014.6 |
| 20260507104544 | 2 | 178 | 4.8 | 9.7 | 0.00 | 0.00 | 0.00 | 80 | 1014.6 |
| 20260507103042 | 2 | 192 | 4.8 | 9.7 | 0.00 | 0.00 | 0.00 | 79 | 1014.8 |
| 20260507101557 | 3 | 175 | 3.2 | 8.0 | 0.00 | 0.00 | 0.00 | 78 | 1014.8 |
| 20260507100038 | 3 | 177 | 3.2 | 9.7 | 0.00 | 0.00 | 0.00 | 77 | 1014.9 |
| 20260507094532 | 3 | 176 | 4.8 | 8.0 | 0.00 | 0.00 | 0.00 | 74 | 1015.1 |
| 20260507093033 | 3 | 188 | 3.2 | 9.7 | 0.00 | 0.00 | 0.00 | 72 | 1015.1 |
| 20260507091549 | 4 | 216 | 3.2 | 8.0 | 0.00 | 0.00 | 0.00 | 70 | 1015.1 |
| 20260507090028 | 5 | 179 | 6.4 | 11.3 | 0.00 | 0.00 | 0.00 | 70 | 1015.1 |
| 20260507084528 | 4 | 209 | 4.8 | 11.3 | 0.00 | 0.00 | 0.00 | 70 | 1015.3 |
| 20260507083026 | 5 | 195 | 4.8 | 11.3 | 0.00 | 0.00 | 0.00 | 69 | 1015.5 |
| 20260507081534 | 4 | 196 | 4.8 | 9.7 | 0.00 | 0.00 | 0.00 | 71 | 1015.4 |
| 20260507080024 | 3 | 168 | 4.8 | 9.7 | 0.00 | 0.00 | 0.00 | 74 | 1015.4 |
| 20260507074521 | 4 | 189 | 4.8 | 8.0 | 0.00 | 0.00 | 0.00 | 73 | 1015.7 |
| 20260507073018 | 3 | 188 | 3.2 | 8.0 | 0.00 | 0.00 | 0.00 | 74 | 1015.9 |
| 20260507071516 | 3 | 186 | 3.2 | 8.0 | 0.00 | 0.00 | 0.00 | 77 | 1015.9 |
| 20260507070015 | 3 | 152 | 3.2 | 4.8 | 0.00 | 0.00 | 0.00 | 76 | 1016.0 |
| 20260507064514 | 3 | 151 | 3.2 | 4.8 | 0.00 | 0.00 | 0.00 | 74 | 1016.3 |
| 20260507063008 | 4 | 177 | 3.2 | 4.8 | 0.00 | 0.00 | 0.00 | 72 | 1016.6 |
| 20260507061520 | 4 | 177 | 3.2 | 4.8 | 0.00 | 0.00 | 0.00 | 72 | 1016.4 |
| 20260507060005 | 4 | 177 | 1.6 | 4.8 | 0.00 | 0.00 | 0.00 | 70 | 1016.6 |
| 20260507054502 | 5 | 172 | 1.6 | 4.8 | 0.00 | 0.00 | 0.00 | 69 | 1016.9 |
| 20260507053101 | 5 | 160 | 3.2 | 6.4 | 0.00 | 0.00 | 0.00 | 68 | 1017.0 |
| 20260507051558 | 5 | 160 | 1.6 | 4.8 | 0.00 | 0.00 | 0.00 | 65 | 1016.9 |
| 20260507050056 | 5 | 160 | 1.6 | 4.8 | 0.00 | 0.00 | 0.00 | 65 | 1017.0 |
| 20260507044556 | 5 | 160 | 3.2 | 6.4 | 0.00 | 0.00 | 0.00 | 64 | 1017.0 |
| 20260507043054 | 6 | 185 | 1.6 | 3.2 | 0.00 | 0.00 | 0.00 | 60 | 1016.9 |
| 20260507041553 | 7 | 178 | 3.2 | 6.4 | 0.00 | 0.00 | 0.00 | 57 | 1017.1 |
| 20260507040055 | 6 | 186 | 3.2 | 6.4 | 0.00 | 0.00 | 0.00 | 56 | 1017.3 |
| 20260507034553 | 6 | 173 | 3.2 | 6.4 | 0.00 | 0.00 | 0.00 | 58 | 1017.3 |
| 20260507033052 | 7 | 218 | 0.0 | 0.0 | 0.00 | 0.00 | 0.00 | 51 | 1017.2 |
| 20260507031551 | 8 | 218 | 0.0 | 3.2 | 0.00 | 0.00 | 0.00 | 50 | 1017.4 |
| 20260507030058 | 7 | 218 | 1.6 | 4.8 | 0.00 | 0.00 | 0.00 | 52 | 1017.3 |
| 20260507024551 | 7 | 218 | 3.2 | 4.8 | 0.00 | 0.00 | 0.00 | 51 | 1017.2 |
| 20260507023051 | 8 | 218 | 1.6 | 4.8 | 0.00 | 0.00 | 0.00 | 50 | 1017.2 |
| 20260507021607 | 8 | 279 | 0.0 | 0.0 | 0.00 | 0.00 | 0.00 | 47 | 1017.0 |
| 20260507020058 | 9 | 279 | 0.0 | 0.0 | 0.00 | 0.00 | 0.00 | 45 | 1017.0 |